Time;durP1;ratioP1;P1;durP2;ratioP2;P2;SDS_P1;SDS_P2;PMS_P1;PMS_P2;Temp;Humidity;BMP_temperature;BMP_pressure;BME280_temperature;BME280_humidity;BME280_pressure;Samples;Min_cycle;Max_cycle;Signal;HPM_P1;HPM_P2
2022/07/04 00:00:10;;;;;;;3.00;2.80;;;25.80;67.20;;;;;;5016371;28;20427;-66
2022/07/04 00:02:38;;;;;;;4.87;2.87;;;25.80;66.50;;;;;;5012011;28;20531;-66
2022/07/04 00:05:08;;;;;;;11.63;2.67;;;25.70;66.90;;;;;;5015582;28;20599;-65
2022/07/04 00:07:34;;;;;;;4.30;2.80;;;25.60;67.10;;;;;;5013604;28;20432;-66
2022/07/04 00:10:00;;;;;;;5.60;2.70;;;25.50;67.00;;;;;;5013941;28;20430;-66
2022/07/04 00:12:25;;;;;;;3.77;2.60;;;25.50;66.60;;;;;;5013633;28;20236;-66
2022/07/04 00:14:51;;;;;;;3.17;2.40;;;25.50;67.10;;;;;;5013504;28;20188;-66
2022/07/04 00:17:16;;;;;;;4.67;3.23;;;25.40;67.00;;;;;;5009973;28;20191;-66
2022/07/04 00:19:42;;;;;;;5.07;2.80;;;25.40;67.40;;;;;;5011783;28;20186;-66
2022/07/04 00:22:08;;;;;;;3.00;2.37;;;25.40;66.80;;;;;;5012629;28;20220;-66
2022/07/04 00:24:33;;;;;;;2.80;2.60;;;25.40;66.80;;;;;;5010406;28;20311;-66
2022/07/04 00:26:59;;;;;;;3.37;3.07;;;25.30;66.70;;;;;;5014637;28;20192;-65
2022/07/04 00:29:24;;;;;;;2.90;2.60;;;25.30;66.90;;;;;;5013865;28;20557;-66
2022/07/04 00:31:50;;;;;;;4.10;2.77;;;25.20;67.20;;;;;;5014190;28;20282;-66
2022/07/04 00:34:16;;;;;;;3.40;2.83;;;25.10;67.40;;;;;;5013543;28;20185;-66
2022/07/04 00:36:41;;;;;;;2.90;2.60;;;25.10;67.80;;;;;;5013000;28;20204;-66
2022/07/04 00:39:07;;;;;;;3.90;2.57;;;25.10;68.10;;;;;;5011630;28;20239;-66
2022/07/04 00:41:32;;;;;;;5.47;3.53;;;25.00;67.90;;;;;;5013100;28;21011;-66
2022/07/04 00:44:05;;;;;;;2.50;2.30;;;25.00;68.30;;;;;;5011054;28;20177;-66
2022/07/04 00:46:30;;;;;;;2.50;2.30;;;25.00;68.10;;;;;;5010902;28;20273;-66
2022/07/04 00:48:56;;;;;;;5.97;2.77;;;24.90;68.00;;;;;;5017892;28;20878;-66
2022/07/04 00:51:22;;;;;;;6.53;2.80;;;24.90;68.10;;;;;;5016663;28;20232;-66
2022/07/04 00:53:49;;;;;;;3.67;2.63;;;24.90;68.10;;;;;;5014568;28;20236;-66
2022/07/04 00:56:15;;;;;;;3.27;2.80;;;24.90;68.40;;;;;;4998494;28;20440;-67
2022/07/04 00:58:40;;;;;;;3.30;2.70;;;24.90;68.50;;;;;;5013066;28;20440;-67
2022/07/04 01:01:06;;;;;;;2.60;2.20;;;24.80;68.40;;;;;;5012561;28;20475;-66
2022/07/04 01:03:31;;;;;;;2.60;2.23;;;24.80;68.50;;;;;;5012532;28;20247;-66
2022/07/04 01:05:59;;;;;;;3.97;2.67;;;24.80;68.50;;;;;;5013896;28;20189;-66
2022/07/04 01:08:25;;;;;;;2.67;2.47;;;24.70;68.90;;;;;;5009026;28;20259;-66
2022/07/04 01:10:51;;;;;;;3.70;2.50;;;24.80;69.00;;;;;;5012068;28;20539;-67
2022/07/04 01:13:23;;;;;;;3.20;2.90;;;24.70;69.30;;;;;;5014806;28;20663;-67
2022/07/04 01:15:50;;;;;;;3.80;3.03;;;24.70;69.50;;;;;;5015162;28;20186;-67
2022/07/04 01:18:16;;;;;;;4.67;3.17;;;24.70;69.50;;;;;;5012009;28;20440;-67
2022/07/04 01:20:42;;;;;;;3.40;2.73;;;24.70;69.60;;;;;;5009272;28;20562;-67
2022/07/04 01:23:08;;;;;;;5.77;2.67;;;24.70;69.60;;;;;;5012248;28;20585;-67
2022/07/04 01:25:34;;;;;;;7.70;2.90;;;24.60;69.80;;;;;;4992022;28;20439;-67
2022/07/04 01:28:00;;;;;;;3.50;3.20;;;24.50;70.50;;;;;;5009679;28;20200;-67
2022/07/04 01:30:26;;;;;;;2.93;2.70;;;24.50;70.30;;;;;;5013362;28;20213;-67
2022/07/04 01:32:53;;;;;;;3.33;2.80;;;24.50;70.30;;;;;;5015086;28;20777;-67
2022/07/04 01:35:19;;;;;;;3.43;3.13;;;24.50;70.40;;;;;;5012453;28;20439;-67
2022/07/04 01:37:45;;;;;;;2.67;2.47;;;24.40;70.30;;;;;;5014505;28;20434;-67
2022/07/04 01:40:12;;;;;;;3.90;2.93;;;24.40;70.50;;;;;;5012867;28;20474;-67
2022/07/04 01:42:38;;;;;;;2.90;2.70;;;24.40;70.50;;;;;;5012217;28;20435;-67
2022/07/04 01:45:05;;;;;;;3.40;2.70;;;24.30;70.50;;;;;;5012990;28;20435;-67
2022/07/04 01:47:30;;;;;;;4.77;3.23;;;24.20;71.80;;;;;;5003376;28;20435;-67
2022/07/04 01:49:56;;;;;;;3.27;2.63;;;24.30;71.10;;;;;;5009283;28;20455;-67
2022/07/04 01:52:22;;;;;;;3.27;2.97;;;24.30;70.80;;;;;;5012196;28;20224;-67
2022/07/04 01:54:47;;;;;;;2.80;2.60;;;24.30;70.50;;;;;;5014458;28;20195;-67
2022/07/04 01:57:13;;;;;;;5.13;3.00;;;24.20;70.40;;;;;;5014207;28;20185;-66
2022/07/04 02:02:23;;;;;;;3.10;2.73;;;24.10;70.60;;;;;;5012788;28;20227;-66
2022/07/04 02:04:49;;;;;;;3.13;2.60;;;24.10;70.30;;;;;;5011734;28;20431;-66
2022/07/04 02:07:15;;;;;;;5.43;4.17;;;24.10;70.60;;;;;;5008899;28;20260;-66
2022/07/04 02:09:40;;;;;;;2.90;2.60;;;24.00;71.40;;;;;;5011401;28;20213;-67
2022/07/04 02:14:50;;;;;;;4.70;2.60;;;24.00;71.10;;;;;;5013307;28;20267;-66
2022/07/04 02:17:16;;;;;;;3.03;2.30;;;24.00;70.80;;;;;;5015302;28;20952;-67
2022/07/04 02:19:41;;;;;;;3.23;2.93;;;24.00;70.00;;;;;;5018507;28;20706;-66
2022/07/04 02:22:07;;;;;;;2.80;2.50;;;24.00;70.20;;;;;;5004026;28;20267;-66
2022/07/04 02:24:33;;;;;;;3.83;2.57;;;24.00;70.60;;;;;;5015853;28;20178;-68
2022/07/04 02:26:58;;;;;;;4.37;2.53;;;24.00;70.50;;;;;;5019070;28;20188;-67
2022/07/04 02:29:24;;;;;;;5.87;2.70;;;23.90;70.50;;;;;;5016029;28;20639;-67
2022/07/04 02:31:50;;;;;;;3.00;2.63;;;23.90;70.70;;;;;;5015519;28;20315;-68
2022/07/04 02:34:15;;;;;;;2.73;2.50;;;23.80;71.90;;;;;;5014752;28;20189;-67
2022/07/04 02:36:41;;;;;;;8.30;2.80;;;23.90;70.60;;;;;;5014505;28;20207;-66
2022/07/04 02:39:06;;;;;;;2.63;2.43;;;23.90;71.30;;;;;;5015787;28;20794;-66
2022/07/04 02:41:33;;;;;;;3.03;2.60;;;23.80;70.40;;;;;;5011960;28;20201;-66
2022/07/04 02:43:59;;;;;;;5.30;2.97;;;23.90;69.60;;;;;;5013598;28;20304;-66
2022/07/04 02:46:24;;;;;;;2.37;2.17;;;23.80;69.50;;;;;;5011813;28;20518;-67
2022/07/04 02:48:50;;;;;;;4.53;2.57;;;23.80;70.00;;;;;;5012389;28;20270;-67
2022/07/04 02:51:16;;;;;;;3.53;2.27;;;23.70;69.40;;;;;;5013328;28;20219;-68
2022/07/04 02:53:42;;;;;;;3.23;2.50;;;23.70;69.80;;;;;;5017245;28;20242;-69
2022/07/04 02:56:08;;;;;;;3.40;2.30;;;23.70;69.60;;;;;;5016004;28;20667;-69
2022/07/04 02:58:34;;;;;;;4.67;2.50;;;23.70;69.80;;;;;;5014247;28;20431;-69
2022/07/04 03:01:00;;;;;;;2.43;2.23;;;23.70;69.70;;;;;;5012280;28;20495;-68
2022/07/04 03:03:26;;;;;;;3.13;2.40;;;23.60;69.90;;;;;;5014632;28;20440;-68
2022/07/04 03:05:52;;;;;;;3.90;2.10;;;23.60;69.70;;;;;;5012357;28;20524;-68
2022/07/04 03:08:18;;;;;;;6.27;2.40;;;23.60;70.10;;;;;;5016070;28;20188;-68
2022/07/04 03:10:44;;;;;;;2.67;2.47;;;23.50;70.20;;;;;;5013377;28;20200;-67
2022/07/04 03:13:10;;;;;;;3.77;2.50;;;23.60;70.00;;;;;;5012314;28;20446;-67
2022/07/04 03:15:35;;;;;;;3.10;2.67;;;23.60;70.20;;;;;;5012976;28;20188;-67
2022/07/04 03:18:01;;;;;;;7.40;2.90;;;23.50;70.40;;;;;;5012411;28;20267;-67
2022/07/04 03:20:27;;;;;;;4.10;2.40;;;23.50;70.30;;;;;;5014539;28;20291;-70
2022/07/04 03:22:54;;;;;;;3.10;2.10;;;23.50;70.50;;;;;;5018147;28;20708;-68
2022/07/04 03:25:20;;;;;;;2.97;2.67;;;23.50;70.40;;;;;;5011121;28;20272;-68
2022/07/04 03:27:46;;;;;;;4.47;2.57;;;23.50;70.50;;;;;;5010521;28;20859;-68
2022/07/04 03:30:12;;;;;;;4.13;2.30;;;23.50;71.00;;;;;;5015505;28;20494;-67
2022/07/04 03:32:37;;;;;;;3.23;2.77;;;23.40;70.80;;;;;;5014917;28;20280;-67
2022/07/04 03:35:03;;;;;;;5.27;2.40;;;23.50;70.90;;;;;;5013720;28;20196;-68
2022/07/04 03:37:29;;;;;;;2.93;2.40;;;23.50;71.00;;;;;;5013567;28;20204;-68
2022/07/04 03:39:54;;;;;;;4.23;3.10;;;23.50;70.30;;;;;;4997750;28;20535;-68
2022/07/04 03:42:20;;;;;;;4.70;2.60;;;23.40;70.20;;;;;;5014946;28;20235;-68
2022/07/04 03:44:45;;;;;;;7.30;2.40;;;23.40;70.70;;;;;;5015591;28;20192;-68
2022/07/04 03:47:11;;;;;;;4.70;2.50;;;23.40;70.90;;;;;;5015186;28;20184;-68
2022/07/04 03:49:37;;;;;;;3.27;2.57;;;23.40;71.30;;;;;;5013310;28;20185;-68
2022/07/04 03:52:03;;;;;;;2.53;2.33;;;23.40;71.50;;;;;;5013137;28;20232;-68
2022/07/04 03:54:29;;;;;;;2.60;2.40;;;23.40;71.50;;;;;;4995216;28;20196;-68
2022/07/04 03:56:55;;;;;;;3.80;2.57;;;23.40;71.80;;;;;;5011532;28;20440;-68
2022/07/04 03:59:20;;;;;;;2.80;2.50;;;23.40;71.60;;;;;;5012852;28;20546;-68
2022/07/04 04:01:46;;;;;;;2.63;2.43;;;23.40;71.80;;;;;;5013562;28;20563;-68
2022/07/04 04:06:56;;;;;;;5.73;2.40;;;23.40;71.80;;;;;;5012115;28;20199;-68
2022/07/04 04:09:24;;;;;;;3.27;2.80;;;23.40;71.90;;;;;;5011956;28;20458;-68
2022/07/04 04:11:53;;;;;;;6.03;4.17;;;23.40;71.80;;;;;;5013619;28;20216;-68
2022/07/04 04:14:19;;;;;;;5.73;3.00;;;23.30;71.90;;;;;;5013281;28;20890;-69
2022/07/04 04:16:44;;;;;;;4.93;2.90;;;23.30;72.10;;;;;;5010865;28;20524;-69
2022/07/04 04:19:10;;;;;;;3.13;2.43;;;23.30;72.10;;;;;;5015762;28;20432;-69
2022/07/04 04:21:36;;;;;;;3.60;3.30;;;23.30;72.10;;;;;;5013172;28;20220;-69
2022/07/04 04:24:02;;;;;;;3.40;2.27;;;23.30;72.20;;;;;;5014591;28;20438;-69
2022/07/04 04:26:28;;;;;;;13.83;2.90;;;23.20;72.10;;;;;;5015953;28;20184;-69
2022/07/04 04:28:54;;;;;;;4.20;2.60;;;23.20;72.20;;;;;;5010657;28;20432;-67
2022/07/04 04:31:19;;;;;;;3.67;2.60;;;23.20;72.50;;;;;;5013567;28;20474;-66
2022/07/04 04:33:45;;;;;;;3.33;2.80;;;23.10;72.40;;;;;;5013797;28;20192;-68
2022/07/04 04:36:11;;;;;;;3.10;2.80;;;23.10;72.70;;;;;;5014200;28;20197;-68
2022/07/04 04:38:36;;;;;;;4.10;3.70;;;23.10;72.80;;;;;;5013944;28;20267;-68
2022/07/04 04:41:02;;;;;;;5.57;2.77;;;23.10;72.50;;;;;;5012640;28;20563;-67
2022/07/04 04:43:28;;;;;;;2.63;2.40;;;23.10;73.10;;;;;;5012112;28;20693;-68
2022/07/04 04:45:54;;;;;;;3.20;2.70;;;23.10;73.40;;;;;;5013601;28;20534;-67
2022/07/04 04:48:19;;;;;;;9.60;3.80;;;23.10;73.20;;;;;;5011540;28;20764;-67
2022/07/04 04:50:45;;;;;;;3.40;2.80;;;23.10;73.20;;;;;;5013661;28;20217;-68
2022/07/04 04:53:11;;;;;;;6.23;3.77;;;23.00;73.40;;;;;;5013126;28;20640;-68
2022/07/04 04:55:39;;;;;;;6.57;3.10;;;23.00;73.20;;;;;;5013928;28;20448;-68
2022/07/04 04:58:04;;;;;;;4.90;2.90;;;23.00;73.60;;;;;;5013803;28;20424;-68
2022/07/04 05:00:30;;;;;;;3.87;3.10;;;23.00;73.20;;;;;;5018705;28;20475;-68
2022/07/04 05:02:56;;;;;;;3.60;2.80;;;23.00;73.20;;;;;;5010680;28;20655;-68
2022/07/04 05:05:21;;;;;;;7.40;2.90;;;23.00;73.40;;;;;;5010996;28;20808;-68
2022/07/04 05:07:47;;;;;;;2.63;2.43;;;23.00;73.40;;;;;;5016092;28;20193;-68
2022/07/04 05:10:12;;;;;;;5.00;2.90;;;23.00;73.50;;;;;;5011137;28;20180;-68
2022/07/04 05:12:38;;;;;;;2.60;2.40;;;23.00;73.20;;;;;;5014716;28;20231;-68
2022/07/04 05:15:04;;;;;;;3.33;3.03;;;23.00;73.20;;;;;;5010378;28;20189;-68
2022/07/04 05:17:30;;;;;;;3.60;2.50;;;23.00;73.40;;;;;;5010134;28;20212;-68
2022/07/04 05:19:56;;;;;;;3.67;2.60;;;23.00;73.40;;;;;;5016473;28;20523;-68
2022/07/04 05:22:21;;;;;;;3.63;2.73;;;22.90;74.10;;;;;;5012421;28;20219;-68
2022/07/04 05:24:47;;;;;;;4.40;2.80;;;22.90;74.10;;;;;;5009818;28;20223;-68
2022/07/04 05:27:12;;;;;;;5.00;2.83;;;23.00;73.80;;;;;;5011487;28;20184;-67
2022/07/04 05:29:38;;;;;;;6.60;4.20;;;23.10;73.20;;;;;;5012245;28;20181;-67
2022/07/04 05:32:05;;;;;;;4.83;2.90;;;23.20;73.00;;;;;;5008670;28;20205;-67
2022/07/04 05:34:31;;;;;;;5.10;3.27;;;23.10;73.80;;;;;;5009990;28;20226;-67
2022/07/04 05:36:56;;;;;;;5.53;2.73;;;23.10;74.50;;;;;;5014320;28;20813;-67
2022/07/04 05:39:22;;;;;;;3.00;2.80;;;23.10;73.90;;;;;;5013587;28;20273;-67
2022/07/04 05:41:48;;;;;;;3.60;2.60;;;23.10;74.10;;;;;;5013769;28;20231;-67
2022/07/04 05:44:13;;;;;;;3.83;3.07;;;23.20;73.90;;;;;;5013653;28;20440;-67
2022/07/04 05:46:39;;;;;;;3.80;2.60;;;23.20;74.10;;;;;;5011742;28;20287;-69
2022/07/04 05:49:04;;;;;;;3.70;3.00;;;23.20;75.20;;;;;;5019180;28;20184;-68
2022/07/04 05:51:30;;;;;;;3.23;2.80;;;23.30;73.80;;;;;;5018188;28;20675;-69
2022/07/04 05:53:55;;;;;;;3.70;2.80;;;23.20;73.70;;;;;;5019825;28;20204;-68
2022/07/04 05:56:21;;;;;;;4.37;2.70;;;23.20;73.70;;;;;;5018677;28;20201;-68
2022/07/04 05:58:47;;;;;;;4.23;3.40;;;23.20;73.60;;;;;;5013551;28;20185;-68
2022/07/04 06:01:13;;;;;;;3.33;2.90;;;23.20;74.60;;;;;;5013299;28;20270;-68
2022/07/04 06:03:38;;;;;;;4.63;3.33;;;23.10;74.80;;;;;;5015994;28;20436;-68
2022/07/04 06:06:04;;;;;;;4.20;3.10;;;23.10;75.10;;;;;;5019238;28;20925;-68
2022/07/04 06:08:30;;;;;;;6.43;2.70;;;23.10;75.00;;;;;;5014363;28;20185;-67
2022/07/04 06:10:56;;;;;;;5.67;3.93;;;23.20;75.30;;;;;;5020248;28;20760;-67
2022/07/04 06:13:22;;;;;;;4.83;4.33;;;23.20;74.50;;;;;;5014473;28;20188;-68
2022/07/04 06:15:47;;;;;;;7.40;4.40;;;23.30;74.10;;;;;;5016300;28;20619;-67
2022/07/04 06:18:13;;;;;;;3.90;3.60;;;23.30;74.60;;;;;;5018635;28;20193;-67
2022/07/04 06:20:42;;;;;;;6.87;5.90;;;23.20;74.90;;;;;;5012319;28;20215;-67
2022/07/04 06:23:08;;;;;;;8.87;3.90;;;23.20;74.90;;;;;;5016077;28;20438;-68
2022/07/04 06:25:34;;;;;;;4.73;4.33;;;23.20;74.30;;;;;;5011255;28;20432;-68
2022/07/04 06:28:00;;;;;;;7.93;6.27;;;23.20;74.60;;;;;;5013842;28;20247;-68
2022/07/04 06:30:26;;;;;;;5.57;3.80;;;23.10;74.90;;;;;;5015713;28;20546;-68
2022/07/04 06:32:54;;;;;;;6.93;6.23;;;23.20;74.50;;;;;;5015124;28;20432;-68
2022/07/04 06:38:07;;;;;;;6.87;3.00;;;23.20;74.90;;;;;;5018631;28;21090;-69
2022/07/04 06:40:33;;;;;;;8.70;3.40;;;23.20;75.50;;;;;;5006988;28;20471;-68
2022/07/04 06:42:59;;;;;;;5.63;3.30;;;23.30;75.30;;;;;;5015637;28;20594;-69
2022/07/04 06:45:25;;;;;;;5.03;2.83;;;23.30;75.80;;;;;;5015010;28;20438;-68
2022/07/04 06:47:50;;;;;;;5.23;4.73;;;23.20;75.50;;;;;;5019063;28;20176;-68
2022/07/04 06:50:17;;;;;;;7.70;4.40;;;23.20;75.90;;;;;;5015417;28;20186;-68
2022/07/04 06:52:43;;;;;;;4.27;2.97;;;23.30;76.20;;;;;;5016919;28;20283;-69
2022/07/04 06:55:09;;;;;;;5.53;3.57;;;23.30;76.30;;;;;;5015048;28;20430;-69
2022/07/04 06:57:34;;;;;;;7.77;4.50;;;23.40;76.00;;;;;;5017108;28;20181;-67
2022/07/04 07:00:00;;;;;;;4.07;3.63;;;23.40;75.60;;;;;;5016750;28;20268;-68
2022/07/04 07:02:26;;;;;;;5.70;4.90;;;23.30;76.10;;;;;;5013866;28;20254;-68
2022/07/04 07:04:54;;;;;;;6.53;3.30;;;23.40;76.00;;;;;;5014961;28;20271;-67
2022/07/04 07:07:19;;;;;;;5.30;4.37;;;23.40;75.50;;;;;;5015434;28;20192;-67
2022/07/04 07:09:45;;;;;;;7.23;2.90;;;23.40;75.90;;;;;;5013976;28;20456;-69
2022/07/04 07:12:10;;;;;;;4.23;3.73;;;23.50;75.90;;;;;;5018057;28;20325;-68
2022/07/04 07:14:36;;;;;;;3.50;3.20;;;23.50;76.00;;;;;;5014662;28;20188;-68
2022/07/04 07:17:02;;;;;;;7.63;3.60;;;23.50;75.90;;;;;;5013114;28;20189;-68
2022/07/04 07:19:28;;;;;;;10.30;8.83;;;23.50;76.10;;;;;;5014739;28;20208;-68
2022/07/04 07:21:53;;;;;;;7.57;5.57;;;23.60;75.80;;;;;;5015950;28;20534;-68
2022/07/04 07:24:19;;;;;;;6.00;4.67;;;23.60;76.00;;;;;;5014363;28;20189;-68
2022/07/04 07:26:45;;;;;;;5.43;3.90;;;23.60;76.40;;;;;;5016744;28;20196;-68
2022/07/04 07:29:10;;;;;;;5.77;3.37;;;23.60;76.40;;;;;;5017174;28;20188;-69
2022/07/04 07:31:36;;;;;;;3.90;3.00;;;23.60;76.30;;;;;;5013590;28;20204;-68
2022/07/04 07:34:01;;;;;;;3.77;3.20;;;23.60;76.40;;;;;;5013581;28;20249;-67
2022/07/04 07:36:27;;;;;;;7.60;3.37;;;23.70;76.10;;;;;;5014544;28;20185;-67
2022/07/04 07:38:55;;;;;;;3.47;3.17;;;23.60;76.20;;;;;;5013578;28;20197;-68
2022/07/04 07:41:21;;;;;;;3.23;2.93;;;23.70;76.40;;;;;;5015760;28;20373;-67
2022/07/04 07:43:47;;;;;;;4.53;3.17;;;23.50;77.10;;;;;;5013398;28;20456;-68
2022/07/04 07:46:12;;;;;;;4.57;3.27;;;23.50;77.30;;;;;;5015252;28;20268;-68
2022/07/04 07:48:38;;;;;;;5.20;2.90;;;23.60;77.20;;;;;;5017466;28;20566;-68
2022/07/04 07:51:03;;;;;;;4.60;3.63;;;23.70;77.30;;;;;;5012710;28;20307;-69
2022/07/04 07:53:29;;;;;;;4.10;3.10;;;23.70;77.00;;;;;;5018234;28;20203;-68
2022/07/04 07:55:55;;;;;;;4.40;3.40;;;23.80;76.80;;;;;;5016017;28;20192;-69
2022/07/04 07:58:20;;;;;;;3.63;3.17;;;23.80;76.50;;;;;;5012964;28;20654;-68
2022/07/04 08:00:46;;;;;;;3.07;2.77;;;23.80;77.00;;;;;;5013876;28;20268;-69
2022/07/04 08:05:57;;;;;;;5.23;3.30;;;23.90;76.60;;;;;;5014854;28;20880;-69
2022/07/04 08:08:23;;;;;;;3.00;2.80;;;23.90;76.80;;;;;;5014074;28;20439;-67
2022/07/04 08:10:50;;;;;;;3.97;3.17;;;24.00;76.70;;;;;;5014636;28;20212;-68
2022/07/04 08:13:15;;;;;;;3.50;3.17;;;23.90;76.80;;;;;;5015341;28;20506;-67
2022/07/04 08:15:41;;;;;;;3.57;3.27;;;24.00;76.90;;;;;;5014338;28;20518;-68
2022/07/04 08:18:06;;;;;;;3.90;3.60;;;24.10;76.70;;;;;;5012368;28;20265;-67
2022/07/04 08:20:32;;;;;;;3.47;3.17;;;24.20;76.30;;;;;;5010413;28;20312;-68
2022/07/04 08:22:58;;;;;;;3.93;3.53;;;24.30;75.90;;;;;;5002150;28;20193;-66
2022/07/04 08:25:23;;;;;;;4.33;3.67;;;24.30;75.60;;;;;;5013748;28;20199;-68
2022/07/04 08:27:49;;;;;;;6.20;3.20;;;24.20;75.90;;;;;;5013877;28;20184;-67
2022/07/04 08:30:14;;;;;;;4.50;3.87;;;24.30;77.10;;;;;;5017243;28;20211;-68
2022/07/04 08:32:40;;;;;;;4.57;3.60;;;24.30;75.90;;;;;;5011226;28;20184;-69
2022/07/04 08:35:06;;;;;;;4.80;3.57;;;24.20;76.10;;;;;;5015947;28;20208;-67
2022/07/04 08:37:32;;;;;;;3.77;3.30;;;24.30;75.90;;;;;;5013359;28;20632;-68
2022/07/04 08:39:58;;;;;;;4.13;3.17;;;24.30;75.60;;;;;;5013903;28;20432;-69
2022/07/04 08:42:23;;;;;;;3.90;3.60;;;24.30;75.50;;;;;;5015330;28;20221;-69
2022/07/04 08:44:51;;;;;;;5.50;3.40;;;24.40;75.50;;;;;;5015803;28;20182;-69
2022/07/04 08:47:22;;;;;;;3.63;3.30;;;24.40;75.70;;;;;;5011590;28;20186;-69
2022/07/04 08:50:11;;;;;;;3.57;3.23;;;24.50;74.60;;;;;;5016471;28;20431;-68
2022/07/04 08:52:42;;;;;;;5.90;3.50;;;24.60;74.50;;;;;;5034603;22;20486;-73
2022/07/04 09:00:40;;;;;;;4.50;3.50;;;24.60;73.80;;;;;;5011221;28;20843;-73
2022/07/04 09:03:06;;;;;;;4.10;3.47;;;24.70;73.80;;;;;;5011981;28;20435;-72
2022/07/04 09:05:33;;;;;;;6.93;4.20;;;24.80;73.40;;;;;;5017651;28;20527;-72
2022/07/04 09:07:59;;;;;;;6.50;3.83;;;24.80;73.70;;;;;;5012446;28;20416;-73
2022/07/04 09:10:25;;;;;;;3.50;3.20;;;24.70;73.60;;;;;;5001129;28;20423;-73
2022/07/04 09:12:51;;;;;;;3.40;3.10;;;24.70;73.30;;;;;;5014906;28;20966;-72
2022/07/04 09:15:17;;;;;;;4.90;3.53;;;24.80;74.50;;;;;;5008737;28;20946;-73
2022/07/04 09:17:43;;;;;;;3.80;3.40;;;24.90;73.00;;;;;;5017487;28;20443;-72
2022/07/04 09:20:20;;;;;;;4.33;3.80;;;25.00;72.70;;;;;;4999885;28;20453;-73
2022/07/04 09:22:48;;;;;;;5.20;3.50;;;25.00;72.50;;;;;;5016665;28;20273;-72
2022/07/04 09:25:14;;;;;;;3.60;3.10;;;25.00;72.30;;;;;;5015076;28;20467;-73
2022/07/04 09:27:44;;;;;;;3.63;3.23;;;25.00;71.50;;;;;;5013196;28;21081;-73
2022/07/04 09:30:21;;;;;;;4.63;2.87;;;25.10;71.30;;;;;;5010014;28;20430;-73
2022/07/04 09:32:52;;;;;;;4.43;3.70;;;25.10;71.30;;;;;;5016780;28;21022;-73
2022/07/04 09:35:20;;;;;;;4.20;3.30;;;25.10;71.30;;;;;;5011760;28;20428;-73
2022/07/04 09:37:59;;;;;;;4.63;3.90;;;25.30;71.80;;;;;;5015557;28;20450;-74
2022/07/04 09:40:28;;;;;;;5.47;3.87;;;25.30;70.70;;;;;;5001965;28;20465;-73
2022/07/04 09:42:55;;;;;;;4.77;3.67;;;25.20;70.60;;;;;;5011549;28;20806;-73
2022/07/04 09:45:23;;;;;;;7.73;3.70;;;25.20;71.20;;;;;;5015632;28;20439;-72
2022/07/04 09:47:50;;;;;;;6.70;3.37;;;25.20;72.00;;;;;;5016789;28;20435;-73
2022/07/04 09:50:18;;;;;;;5.23;3.37;;;25.30;72.20;;;;;;5004176;28;20489;-73
2022/07/04 09:52:46;;;;;;;5.80;3.70;;;25.40;72.30;;;;;;5010879;28;20452;-72
2022/07/04 09:55:12;;;;;;;4.10;3.20;;;25.60;72.00;;;;;;5015995;28;20468;-73
2022/07/04 09:57:37;;;;;;;4.20;3.33;;;25.70;71.60;;;;;;5011518;28;20498;-73
2022/07/04 10:00:18;;;;;;;4.90;3.70;;;25.80;70.80;;;;;;5017380;28;20279;-73
2022/07/04 10:02:44;;;;;;;5.50;4.20;;;25.90;69.90;;;;;;5013916;28;20748;-73
2022/07/04 10:05:10;;;;;;;5.80;3.53;;;25.90;69.80;;;;;;5013052;28;20435;-73
2022/07/04 10:07:43;;;;;;;3.77;3.40;;;25.80;68.90;;;;;;5011407;28;20448;-73
2022/07/04 10:10:27;;;;;;;4.13;3.30;;;25.80;69.10;;;;;;5016687;28;20446;-73
2022/07/04 10:12:54;;;;;;;5.07;4.27;;;25.80;68.90;;;;;;5012381;28;21012;-74
2022/07/04 10:15:20;;;;;;;3.37;3.13;;;25.90;69.40;;;;;;5000122;28;21275;-74
2022/07/04 10:17:47;;;;;;;3.17;2.87;;;25.90;69.80;;;;;;5012451;28;20420;-72
2022/07/04 10:20:13;;;;;;;3.40;3.10;;;25.90;69.10;;;;;;5011597;28;20560;-73
2022/07/04 10:22:39;;;;;;;5.97;3.53;;;26.00;69.60;;;;;;4997956;28;20497;-73
2022/07/04 10:25:07;;;;;;;4.27;3.77;;;26.00;69.50;;;;;;5013305;28;20434;-73
2022/07/04 10:27:33;;;;;;;6.37;3.63;;;26.20;68.80;;;;;;5016356;28;20481;-73
2022/07/04 10:30:01;;;;;;;8.27;5.00;;;26.30;69.10;;;;;;5011949;28;20439;-73
2022/07/04 10:32:27;;;;;;;3.93;3.30;;;26.30;68.70;;;;;;5000075;28;20438;-73
2022/07/04 10:34:53;;;;;;;4.40;3.40;;;26.50;68.90;;;;;;5018523;28;20439;-74
2022/07/04 10:37:20;;;;;;;5.30;3.37;;;26.50;67.50;;;;;;5022304;28;20817;-72
2022/07/04 10:39:46;;;;;;;4.90;3.50;;;26.50;66.80;;;;;;4995583;28;20178;-72
2022/07/04 10:42:24;;;;;;;4.03;3.40;;;26.40;66.70;;;;;;5018419;28;20482;-73
2022/07/04 10:44:49;;;;;;;6.70;4.07;;;26.50;66.10;;;;;;5018618;28;20297;-73
2022/07/04 10:47:29;;;;;;;3.77;3.47;;;26.70;66.30;;;;;;5015333;28;20447;-73
2022/07/04 10:49:55;;;;;;;5.93;3.23;;;26.90;66.30;;;;;;5015960;28;20185;-73
2022/07/04 10:52:20;;;;;;;4.00;3.60;;;27.00;66.40;;;;;;5015048;28;20447;-74
2022/07/04 10:54:46;;;;;;;3.70;3.10;;;27.10;65.90;;;;;;5014945;28;20185;-74
2022/07/04 10:57:16;;;;;;;4.60;3.40;;;27.20;65.80;;;;;;5020586;28;20564;-74
2022/07/04 11:00:01;;;;;;;4.87;3.60;;;27.30;65.90;;;;;;5017510;28;20185;-74
2022/07/04 11:02:31;;;;;;;6.40;3.50;;;27.40;65.10;;;;;;5016885;28;20498;-75
2022/07/04 11:05:04;;;;;;;3.73;3.20;;;27.50;65.30;;;;;;5017788;28;20436;-74
2022/07/04 11:07:30;;;;;;;5.07;3.17;;;27.60;65.10;;;;;;5015325;28;20849;-75
2022/07/04 11:10:29;;;;;;;3.87;3.10;;;27.60;64.60;;;;;;5019766;28;20434;-74
2022/07/04 11:12:54;;;;;;;4.90;3.93;;;27.80;65.50;;;;;;4989362;28;20200;-74
2022/07/04 11:15:32;;;;;;;3.70;3.30;;;27.70;64.10;;;;;;4996673;28;20443;-74
2022/07/04 11:18:08;;;;;;;4.30;3.30;;;27.80;63.30;;;;;;5018247;28;20281;-74
2022/07/04 11:20:36;;;;;;;4.33;3.60;;;28.00;62.90;;;;;;5013806;28;20447;-74
2022/07/04 11:23:05;;;;;;;4.03;3.40;;;28.10;63.00;;;;;;5018632;28;20483;-74
2022/07/04 11:25:31;;;;;;;5.33;3.87;;;28.20;62.00;;;;;;5007016;28;20622;-75
2022/07/04 11:27:57;;;;;;;8.50;3.40;;;28.20;61.70;;;;;;5014119;28;20432;-74
2022/07/04 11:30:23;;;;;;;4.60;3.30;;;28.20;60.70;;;;;;5013032;28;20435;-73
2022/07/04 11:32:48;;;;;;;3.93;3.63;;;28.10;60.20;;;;;;5020460;28;20185;-74
2022/07/04 11:35:20;;;;;;;5.50;4.20;;;27.90;60.20;;;;;;5016161;28;20447;-74
2022/07/04 11:37:45;;;;;;;3.73;3.40;;;28.10;60.60;;;;;;5017106;28;20192;-74
2022/07/04 11:45:51;;;;;;;4.20;3.37;;;28.70;59.40;;;;;;5014764;28;20667;-74
2022/07/04 11:48:27;;;;;;;8.90;3.60;;;28.60;59.80;;;;;;5015347;28;21103;-74
2022/07/04 11:50:53;;;;;;;4.03;3.10;;;28.80;59.50;;;;;;5014161;28;20556;-74
2022/07/04 11:53:20;;;;;;;9.20;3.20;;;28.90;58.00;;;;;;5019513;28;20465;-75
2022/07/04 11:55:56;;;;;;;3.47;3.17;;;29.00;57.80;;;;;;5016938;28;20562;-74
2022/07/04 11:58:25;;;;;;;5.40;3.53;;;29.40;58.10;;;;;;5015295;28;20493;-73
2022/07/04 12:00:51;;;;;;;5.27;3.73;;;29.50;57.40;;;;;;5016089;28;20554;-74
2022/07/04 12:03:17;;;;;;;4.17;3.10;;;29.80;57.00;;;;;;5016082;28;20440;-75
2022/07/04 12:05:43;;;;;;;5.40;3.40;;;29.90;57.00;;;;;;4997052;28;20461;-75
2022/07/04 12:08:09;;;;;;;3.93;3.53;;;30.60;56.60;;;;;;5015861;28;20230;-74
2022/07/04 12:10:36;;;;;;;5.20;3.27;;;31.70;55.50;;;;;;5013124;28;20851;-75
2022/07/04 12:13:11;;;;;;;3.00;2.80;;;33.10;52.30;;;;;;5017526;28;20402;-74
2022/07/04 12:15:44;;;;;;;3.20;2.90;;;34.40;50.80;;;;;;5013426;28;20441;-74
2022/07/04 12:18:17;;;;;;;3.33;3.03;;;35.80;49.00;;;;;;5016941;28;20438;-76
2022/07/04 12:20:42;;;;;;;3.80;2.70;;;37.90;46.10;;;;;;5014830;28;20442;-75
2022/07/04 12:23:09;;;;;;;3.33;3.03;;;38.80;44.80;;;;;;5017687;28;20795;-75
2022/07/04 12:25:38;;;;;;;3.47;3.17;;;39.50;43.20;;;;;;5015983;28;20205;-75
2022/07/04 12:28:05;;;;;;;3.37;3.07;;;38.90;42.20;;;;;;5016240;28;20471;-73
2022/07/04 12:30:33;;;;;;;6.20;3.10;;;37.40;43.10;;;;;;5014659;28;20463;-74
2022/07/04 12:33:01;;;;;;;3.50;3.20;;;37.20;43.70;;;;;;5015977;28;20405;-75
2022/07/04 12:35:47;;;;;;;3.43;3.13;;;38.10;43.40;;;;;;5014589;28;20471;-74
2022/07/04 12:38:34;;;;;;;4.57;2.80;;;38.20;42.10;;;;;;5001937;28;20409;-75
2022/07/04 12:41:07;;;;;;;5.17;3.27;;;39.00;42.00;;;;;;5019051;28;20484;-76
2022/07/04 12:43:39;;;;;;;4.10;2.93;;;39.40;41.40;;;;;;5014210;28;20409;-75
2022/07/04 12:46:05;;;;;;;3.80;3.50;;;39.30;40.40;;;;;;5018518;28;20456;-75
2022/07/04 12:48:31;;;;;;;4.03;3.27;;;39.40;40.10;;;;;;5003354;28;21025;-74
2022/07/04 12:51:28;;;;;;;3.03;2.50;;;38.20;40.00;;;;;;5014141;28;20673;-75
2022/07/04 12:53:56;;;;;;;4.40;2.97;;;38.20;41.20;;;;;;5015696;28;20204;-74
2022/07/04 12:56:36;;;;;;;3.70;3.20;;;37.70;41.10;;;;;;5012749;28;20478;-76
2022/07/04 12:59:07;;;;;;;3.70;2.50;;;37.60;41.80;;;;;;5013602;28;20429;-75
2022/07/04 13:01:34;;;;;;;3.10;2.80;;;36.70;41.60;;;;;;5019772;28;20466;-75
2022/07/04 13:04:00;;;;;;;6.80;3.37;;;36.20;42.10;;;;;;5019407;28;20414;-75
2022/07/04 13:06:26;;;;;;;2.90;2.60;;;36.00;42.10;;;;;;5017054;28;20977;-75
2022/07/04 13:08:52;;;;;;;2.73;2.53;;;36.00;41.50;;;;;;5014902;28;20189;-75